Time;durP1;ratioP1;P1;durP2;ratioP2;P2;SDS_P1;SDS_P2;PMS_P1;PMS_P2;Temp;Humidity;BMP_temperature;BMP_pressure;BME280_temperature;BME280_humidity;BME280_pressure;Samples;Min_cycle;Max_cycle;Signal;HPM_P1;HPM_P2
2022/04/24 00:00:38;;;;;;;44.67;26.95;;;12.40;99.90;;;;;;4843920;29;20034;-77
2022/04/24 00:03:04;;;;;;;41.67;26.23;;;12.40;99.90;;;;;;4843900;29;20034;-76
2022/04/24 00:05:30;;;;;;;44.80;26.55;;;12.30;99.90;;;;;;4843693;29;20472;-76
2022/04/24 00:07:56;;;;;;;44.65;26.95;;;12.40;99.90;;;;;;4843727;29;20369;-77
2022/04/24 00:10:22;;;;;;;51.88;28.58;;;12.30;99.90;;;;;;4843722;29;20029;-78
2022/04/24 00:12:48;;;;;;;49.28;28.30;;;12.30;99.90;;;;;;4843403;29;20041;-75
2022/04/24 00:15:15;;;;;;;45.08;28.35;;;12.30;99.90;;;;;;4843294;29;20037;-76
2022/04/24 00:17:41;;;;;;;43.65;26.90;;;12.30;99.90;;;;;;4827358;29;20394;-75
2022/04/24 00:20:07;;;;;;;48.88;28.40;;;12.40;99.90;;;;;;4843126;29;20469;-76
2022/04/24 00:22:33;;;;;;;45.88;28.30;;;12.30;99.90;;;;;;4827208;29;20029;-75
2022/04/24 00:24:59;;;;;;;52.35;29.98;;;12.30;99.90;;;;;;4843303;29;20033;-77
2022/04/24 00:27:24;;;;;;;52.85;29.88;;;12.40;99.90;;;;;;4843757;29;20034;-77
2022/04/24 00:29:50;;;;;;;49.25;27.50;;;12.40;99.90;;;;;;4843045;29;20355;-76
2022/04/24 00:32:16;;;;;;;46.65;27.35;;;12.40;99.90;;;;;;4842969;29;20041;-77
2022/04/24 00:34:41;;;;;;;49.17;27.98;;;12.40;99.90;;;;;;4843434;29;20118;-77
2022/04/24 00:37:07;;;;;;;49.08;29.42;;;12.30;99.90;;;;;;4843091;29;20086;-76
2022/04/24 00:39:33;;;;;;;55.88;31.00;;;12.20;99.90;;;;;;4843180;29;20025;-77
2022/04/24 00:41:59;;;;;;;54.85;31.38;;;12.20;99.90;;;;;;4843208;29;20033;-76
2022/04/24 00:44:27;;;;;;;57.22;32.00;;;12.20;99.90;;;;;;4842002;29;20452;-75
2022/04/24 00:47:00;;;;;;;59.30;32.90;;;12.20;99.90;;;;;;4841749;29;20018;-78
2022/04/24 00:49:26;;;;;;;60.85;34.83;;;12.20;99.90;;;;;;4840064;29;20480;-77
2022/04/24 00:51:53;;;;;;;64.88;31.80;;;12.20;99.90;;;;;;4841883;29;20036;-74
2022/04/24 00:54:19;;;;;;;60.55;32.85;;;12.20;99.90;;;;;;4841215;29;20030;-77
2022/04/24 00:56:45;;;;;;;48.63;27.13;;;12.20;99.90;;;;;;4841773;29;20054;-76
2022/04/24 00:59:12;;;;;;;45.80;27.60;;;12.10;99.90;;;;;;4841689;29;20049;-76
2022/04/24 01:01:40;;;;;;;57.72;30.75;;;12.10;99.90;;;;;;4825238;29;20454;-77
2022/04/24 01:04:07;;;;;;;65.53;33.33;;;12.10;99.90;;;;;;4825301;29;20480;-78
2022/04/24 01:06:41;;;;;;;70.10;35.38;;;12.10;99.90;;;;;;4825477;29;20339;-77
2022/04/24 01:09:18;;;;;;;63.85;36.47;;;12.10;99.90;;;;;;4839868;29;20030;-77
2022/04/24 01:11:57;;;;;;;85.05;40.95;;;12.10;99.90;;;;;;4839319;29;20018;-77
2022/04/24 01:14:25;;;;;;;86.57;40.55;;;12.10;99.90;;;;;;4839156;29;20466;-77
2022/04/24 01:16:51;;;;;;;57.97;32.58;;;12.00;99.90;;;;;;4841876;29;20406;-76
2022/04/24 01:19:18;;;;;;;57.75;32.90;;;12.00;99.90;;;;;;4841373;29;20031;-76
2022/04/24 01:21:45;;;;;;;67.82;34.22;;;12.00;99.90;;;;;;4839106;29;20022;-77
2022/04/24 01:24:12;;;;;;;55.08;32.75;;;12.00;99.90;;;;;;4841183;29;20620;-77
2022/04/24 01:26:38;;;;;;;60.65;31.63;;;12.00;99.90;;;;;;4841307;29;20466;-77
2022/04/24 01:29:05;;;;;;;54.38;32.65;;;11.90;99.90;;;;;;4841438;29;20037;-76
2022/04/24 01:31:31;;;;;;;64.80;34.75;;;11.90;99.90;;;;;;4841356;29;20026;-77
2022/04/24 01:33:57;;;;;;;60.45;33.50;;;11.90;99.90;;;;;;4841547;29;20046;-77
2022/04/24 01:36:23;;;;;;;65.78;33.25;;;11.80;99.90;;;;;;4838670;29;20086;-76
2022/04/24 01:38:49;;;;;;;48.67;29.20;;;11.80;99.90;;;;;;4841168;29;20018;-75
2022/04/24 01:41:15;;;;;;;47.88;28.48;;;11.80;99.90;;;;;;4841498;29;20068;-79
2022/04/24 01:43:42;;;;;;;45.35;27.80;;;11.80;99.90;;;;;;4840922;29;20491;-76
2022/04/24 01:46:09;;;;;;;48.88;28.02;;;11.80;99.90;;;;;;4841316;29;20089;-76
2022/04/24 01:48:35;;;;;;;47.47;26.88;;;11.80;99.90;;;;;;4841466;29;20039;-77
2022/04/24 01:51:06;;;;;;;46.03;26.75;;;11.80;99.90;;;;;;4841040;29;20036;-77
2022/04/24 01:53:33;;;;;;;42.45;25.50;;;11.80;99.90;;;;;;4841003;29;20025;-76
2022/04/24 01:56:01;;;;;;;51.58;28.65;;;11.80;99.90;;;;;;4841131;29;20113;-77
2022/04/24 01:58:27;;;;;;;54.70;28.50;;;11.70;99.90;;;;;;4841385;29;20058;-76
2022/04/24 02:00:53;;;;;;;48.50;27.80;;;11.70;99.90;;;;;;4824848;29;20373;-77
2022/04/24 02:03:20;;;;;;;54.38;29.10;;;11.70;99.90;;;;;;4824631;29;20022;-78
2022/04/24 02:05:47;;;;;;;46.38;28.67;;;11.70;99.90;;;;;;4841326;29;20022;-80
2022/04/24 02:08:13;;;;;;;43.30;27.92;;;11.70;99.90;;;;;;4841461;29;20101;-76
2022/04/24 02:10:39;;;;;;;48.35;26.83;;;11.60;99.90;;;;;;4842493;29;20453;-77
2022/04/24 02:13:05;;;;;;;47.72;27.15;;;11.60;99.90;;;;;;4844466;29;20041;-76
2022/04/24 02:15:31;;;;;;;49.90;28.30;;;11.60;99.90;;;;;;4844479;29;20045;-75
2022/04/24 02:17:57;;;;;;;52.55;28.67;;;11.60;99.90;;;;;;4844024;29;20054;-77
2022/04/24 02:20:23;;;;;;;44.17;25.85;;;11.60;99.90;;;;;;4841636;29;20026;-77
2022/04/24 02:22:50;;;;;;;44.83;26.60;;;11.60;99.90;;;;;;4844279;29;20071;-77
2022/04/24 02:25:17;;;;;;;50.35;27.60;;;11.50;99.90;;;;;;4843929;29;20471;-78
2022/04/24 02:27:43;;;;;;;54.25;28.90;;;11.50;99.90;;;;;;4844216;29;20018;-79
2022/04/24 02:30:09;;;;;;;46.63;26.65;;;11.60;99.90;;;;;;4844180;29;20022;-76
2022/04/24 02:32:35;;;;;;;45.97;26.23;;;11.50;99.90;;;;;;4843985;29;20037;-79
2022/04/24 02:35:01;;;;;;;42.33;23.20;;;11.50;99.90;;;;;;4827389;29;20109;-79
2022/04/24 02:37:27;;;;;;;39.60;23.58;;;11.50;99.90;;;;;;4844110;29;20117;-77
2022/04/24 02:39:53;;;;;;;46.13;25.40;;;11.50;99.90;;;;;;4843950;29;20030;-78
2022/04/24 02:42:19;;;;;;;53.38;28.60;;;11.50;99.90;;;;;;4843564;29;20022;-77
2022/04/24 02:44:45;;;;;;;44.22;26.48;;;11.50;99.90;;;;;;4843758;29;20033;-77
2022/04/24 02:47:11;;;;;;;38.25;24.40;;;11.50;99.90;;;;;;4843469;29;20030;-79
2022/04/24 02:49:37;;;;;;;40.95;23.55;;;11.50;99.90;;;;;;4827584;29;20034;-78
2022/04/24 02:52:03;;;;;;;38.42;23.13;;;11.60;99.90;;;;;;4843573;29;20036;-79
2022/04/24 02:54:29;;;;;;;36.47;22.10;;;11.60;99.90;;;;;;4827252;29;20143;-76
2022/04/24 02:56:54;;;;;;;37.70;22.00;;;11.60;99.90;;;;;;4843708;29;20039;-76
2022/04/24 02:59:20;;;;;;;35.78;20.60;;;11.60;99.90;;;;;;4843560;29;20125;-78
2022/04/24 03:01:46;;;;;;;39.05;21.58;;;11.60;99.90;;;;;;4843768;29;20028;-77
2022/04/24 03:04:12;;;;;;;32.65;20.95;;;11.70;99.90;;;;;;4827057;29;20021;-76
2022/04/24 03:06:38;;;;;;;33.92;20.73;;;11.70;99.90;;;;;;4843363;29;20121;-77
2022/04/24 03:09:05;;;;;;;41.22;23.92;;;11.70;99.90;;;;;;4843819;29;20476;-79
2022/04/24 03:11:31;;;;;;;41.47;23.65;;;11.70;99.90;;;;;;4843423;29;20022;-76
2022/04/24 03:13:57;;;;;;;51.20;27.15;;;11.70;99.90;;;;;;4843329;29;20454;-75
2022/04/24 03:16:23;;;;;;;42.13;23.48;;;11.70;99.90;;;;;;4843376;29;20033;-77
2022/04/24 03:18:48;;;;;;;36.60;20.58;;;11.70;99.90;;;;;;4843113;29;20035;-76
2022/04/24 03:21:14;;;;;;;37.85;20.95;;;11.70;99.90;;;;;;4843202;29;20517;-76
2022/04/24 03:23:40;;;;;;;30.25;19.65;;;11.70;99.90;;;;;;4842928;29;20022;-76
2022/04/24 03:26:06;;;;;;;42.75;21.70;;;11.70;99.90;;;;;;4826866;29;20061;-77
2022/04/24 03:28:32;;;;;;;38.83;20.67;;;11.70;99.90;;;;;;4843063;29;20022;-78
2022/04/24 03:30:58;;;;;;;35.90;19.88;;;11.70;99.90;;;;;;4843022;29;20030;-77
2022/04/24 03:33:24;;;;;;;40.42;21.48;;;11.70;99.90;;;;;;4840677;29;20476;-76
2022/04/24 03:35:50;;;;;;;43.55;24.05;;;11.70;99.90;;;;;;4842873;29;20033;-77
2022/04/24 03:38:16;;;;;;;55.53;26.52;;;11.70;99.90;;;;;;4843283;29;20045;-75
2022/04/24 03:40:42;;;;;;;45.65;25.90;;;11.70;99.90;;;;;;4842979;29;20026;-76
2022/04/24 03:43:07;;;;;;;43.72;25.60;;;11.70;99.90;;;;;;4842576;29;20034;-77
2022/04/24 03:45:33;;;;;;;34.72;22.63;;;11.70;99.90;;;;;;4843147;29;20017;-78
2022/04/24 03:47:59;;;;;;;35.05;22.77;;;11.60;99.90;;;;;;4842334;29;20141;-76
2022/04/24 03:50:25;;;;;;;41.30;23.85;;;11.60;99.90;;;;;;4842568;29;20140;-77
2022/04/24 03:52:50;;;;;;;34.35;21.10;;;11.60;99.90;;;;;;4842701;29;20033;-76
2022/04/24 03:55:16;;;;;;;33.30;20.10;;;11.60;99.90;;;;;;4842652;29;20033;-78
2022/04/24 03:57:42;;;;;;;30.05;18.48;;;11.60;99.90;;;;;;4842575;29;20042;-77
2022/04/24 04:00:08;;;;;;;29.42;17.92;;;11.60;99.90;;;;;;4842349;29;20182;-76
2022/04/24 04:02:48;;;;;;;31.52;17.77;;;11.60;99.90;;;;;;4842218;29;20014;-78
2022/04/24 04:05:16;;;;;;;31.58;17.45;;;11.60;99.90;;;;;;4841529;29;20026;-77
2022/04/24 04:07:43;;;;;;;33.13;17.30;;;11.60;99.90;;;;;;4842513;29;20022;-78
2022/04/24 04:10:09;;;;;;;29.30;16.65;;;11.60;99.90;;;;;;4842169;29;20030;-78
2022/04/24 04:12:35;;;;;;;31.35;16.85;;;11.60;99.90;;;;;;4842416;29;20028;-79
2022/04/24 04:15:07;;;;;;;29.83;17.05;;;11.60;99.90;;;;;;4842068;29;20021;-76
2022/04/24 04:17:33;;;;;;;30.15;18.08;;;11.60;99.90;;;;;;4841980;29;20022;-76
2022/04/24 04:19:59;;;;;;;26.05;16.38;;;11.70;99.90;;;;;;4825385;29;20040;-78
2022/04/24 04:22:25;;;;;;;31.92;17.77;;;11.70;99.90;;;;;;4842359;29;20026;-77
2022/04/24 04:24:52;;;;;;;30.30;17.20;;;11.70;99.90;;;;;;4841989;29;20033;-78
2022/04/24 04:27:19;;;;;;;26.35;18.45;;;11.70;99.90;;;;;;4826418;29;20040;-77
2022/04/24 04:29:45;;;;;;;28.73;17.90;;;11.70;99.90;;;;;;4839585;29;20026;-76
2022/04/24 04:32:11;;;;;;;33.65;20.65;;;11.70;99.90;;;;;;4842211;29;20486;-77
2022/04/24 04:34:37;;;;;;;30.35;17.85;;;11.80;99.90;;;;;;4841439;29;20030;-76
2022/04/24 04:37:03;;;;;;;30.33;17.52;;;11.80;99.90;;;;;;4841849;29;20408;-76
2022/04/24 04:39:29;;;;;;;28.50;18.48;;;11.80;99.90;;;;;;4841925;29;20037;-74
2022/04/24 04:41:54;;;;;;;34.25;19.60;;;11.80;99.90;;;;;;4841978;29;20377;-74
2022/04/24 04:44:20;;;;;;;28.88;18.42;;;11.90;99.90;;;;;;4841521;29;20377;-74
2022/04/24 04:46:46;;;;;;;35.38;18.13;;;11.90;99.90;;;;;;4841970;29;20036;-75
2022/04/24 04:49:11;;;;;;;37.30;19.55;;;12.00;99.90;;;;;;4841824;29;20026;-74
2022/04/24 04:51:37;;;;;;;36.00;19.95;;;12.00;99.90;;;;;;4841719;29;20086;-75
2022/04/24 04:54:03;;;;;;;31.48;20.15;;;12.10;99.90;;;;;;4841774;29;20030;-74
2022/04/24 04:56:29;;;;;;;35.78;20.92;;;12.10;99.90;;;;;;4841827;29;20488;-74
2022/04/24 04:58:54;;;;;;;36.17;20.92;;;12.20;99.90;;;;;;4841770;29;20058;-75
2022/04/24 05:01:20;;;;;;;37.92;21.25;;;12.20;99.90;;;;;;4841360;29;20101;-75
2022/04/24 05:03:46;;;;;;;34.95;21.52;;;12.20;99.90;;;;;;4841533;29;20032;-75
2022/04/24 05:06:12;;;;;;;28.48;19.20;;;12.30;99.90;;;;;;4841339;29;20052;-75
2022/04/24 05:08:37;;;;;;;31.38;17.58;;;12.30;99.90;;;;;;4841957;29;20078;-74
2022/04/24 05:11:03;;;;;;;28.50;17.77;;;12.40;99.90;;;;;;4841920;29;20112;-73
2022/04/24 05:13:29;;;;;;;27.02;16.77;;;12.40;99.90;;;;;;4841285;29;20030;-72
2022/04/24 05:15:55;;;;;;;29.77;19.23;;;12.40;99.90;;;;;;4841716;29;20442;-72
2022/04/24 05:18:20;;;;;;;30.30;20.55;;;12.40;99.90;;;;;;4840521;29;20014;-76
2022/04/24 05:20:46;;;;;;;28.20;15.07;;;12.50;99.90;;;;;;4841019;29;20025;-74
2022/04/24 05:23:12;;;;;;;22.92;16.10;;;12.60;99.90;;;;;;4842591;29;20026;-75
2022/04/24 05:25:38;;;;;;;24.05;14.07;;;12.70;99.90;;;;;;4842975;29;20078;-78
2022/04/24 05:28:05;;;;;;;23.85;15.27;;;12.70;99.90;;;;;;4842945;29;20026;-74
2022/04/24 05:30:32;;;;;;;25.92;16.60;;;12.80;99.90;;;;;;4841391;29;20026;-73
2022/04/24 05:32:58;;;;;;;25.88;15.18;;;12.90;99.90;;;;;;4840704;29;20086;-74
2022/04/24 05:35:24;;;;;;;22.25;13.95;;;12.90;99.90;;;;;;4841655;29;20026;-73
2022/04/24 05:37:50;;;;;;;24.30;13.07;;;13.00;99.90;;;;;;4843020;29;20022;-77
2022/04/24 05:40:17;;;;;;;24.25;12.52;;;13.00;99.90;;;;;;4842788;29;20026;-74
2022/04/24 05:42:56;;;;;;;21.65;13.98;;;13.10;99.90;;;;;;4843082;29;20034;-76
2022/04/24 05:45:24;;;;;;;20.25;13.25;;;13.20;99.90;;;;;;4843972;29;20026;-74
2022/04/24 05:47:51;;;;;;;26.45;15.25;;;13.20;99.90;;;;;;4846120;29;20050;-76
2022/04/24 05:50:17;;;;;;;23.90;14.10;;;13.30;99.90;;;;;;4845835;29;20456;-76
2022/04/24 05:52:43;;;;;;;24.67;15.20;;;13.40;99.90;;;;;;4846275;29;20040;-77
2022/04/24 05:55:10;;;;;;;24.23;15.80;;;13.40;99.90;;;;;;4846275;29;20034;-76
2022/04/24 05:57:36;;;;;;;27.83;16.98;;;13.50;99.90;;;;;;4845059;29;20154;-75
2022/04/24 06:00:10;;;;;;;29.15;16.67;;;13.60;99.90;;;;;;4843916;29;20399;-74
2022/04/24 06:02:35;;;;;;;28.10;15.25;;;13.70;99.90;;;;;;4844398;29;20022;-76
2022/04/24 06:05:01;;;;;;;29.50;15.15;;;13.80;99.90;;;;;;4844646;29;20034;-75
2022/04/24 06:07:27;;;;;;;25.27;14.45;;;13.90;99.90;;;;;;4844635;29;20029;-76
2022/04/24 06:09:53;;;;;;;24.52;15.32;;;14.00;99.90;;;;;;4844738;29;20025;-75
2022/04/24 06:12:19;;;;;;;20.45;12.45;;;14.20;99.90;;;;;;4845627;29;20050;-77
2022/04/24 06:14:44;;;;;;;31.67;16.70;;;14.30;99.90;;;;;;4846074;29;20480;-77
2022/04/24 06:17:10;;;;;;;26.42;12.75;;;14.50;99.90;;;;;;4845636;29;20109;-76
2022/04/24 06:19:36;;;;;;;31.92;15.13;;;14.60;99.90;;;;;;4845479;29;20057;-75
2022/04/24 06:22:02;;;;;;;22.15;13.88;;;14.70;99.90;;;;;;4845286;29;20030;-76
2022/04/24 06:24:28;;;;;;;24.95;14.25;;;14.70;99.90;;;;;;4845770;29;20037;-77
2022/04/24 06:26:53;;;;;;;29.58;15.65;;;14.70;99.90;;;;;;4829020;29;20056;-75
2022/04/24 06:29:19;;;;;;;31.48;17.58;;;14.80;99.90;;;;;;4828882;29;20418;-76
2022/04/24 06:31:45;;;;;;;24.27;14.85;;;15.00;99.90;;;;;;4829046;29;20079;-77
2022/04/24 06:34:10;;;;;;;24.02;14.02;;;15.00;99.90;;;;;;4845722;29;20339;-75
2022/04/24 06:36:37;;;;;;;25.10;13.27;;;15.10;99.90;;;;;;4845088;29;20033;-75
2022/04/24 06:39:03;;;;;;;23.98;13.63;;;15.10;99.90;;;;;;4844850;29;21468;-77
2022/04/24 06:41:29;;;;;;;23.13;12.27;;;15.30;99.90;;;;;;4844525;29;20034;-77
2022/04/24 06:43:55;;;;;;;21.58;13.10;;;15.40;99.90;;;;;;4844748;29;20026;-74
2022/04/24 06:46:21;;;;;;;20.48;13.30;;;15.60;99.90;;;;;;4844904;29;20030;-74
2022/04/24 06:48:47;;;;;;;17.40;9.88;;;15.90;99.90;;;;;;4845004;29;20030;-75
2022/04/24 06:51:13;;;;;;;15.98;7.97;;;16.00;99.90;;;;;;4844711;29;20033;-75
2022/04/24 06:53:39;;;;;;;18.33;9.32;;;16.10;99.90;;;;;;4845087;29;20369;-75
2022/04/24 06:56:05;;;;;;;18.02;9.05;;;16.20;99.90;;;;;;4844771;29;20112;-75
2022/04/24 06:58:31;;;;;;;17.42;8.52;;;16.30;99.90;;;;;;4844492;29;20128;-74
2022/04/24 07:00:57;;;;;;;16.05;8.23;;;16.40;99.90;;;;;;4844579;29;20057;-74
2022/04/24 07:03:24;;;;;;;15.93;8.48;;;16.40;99.90;;;;;;4845097;29;20028;-75
2022/04/24 07:05:53;;;;;;;15.68;8.55;;;16.50;99.90;;;;;;4844522;29;20022;-75
2022/04/24 07:08:21;;;;;;;17.75;8.57;;;16.60;99.90;;;;;;4845168;29;20109;-75
2022/04/24 07:10:47;;;;;;;15.35;8.07;;;16.90;99.90;;;;;;4844949;29;20458;-74
2022/04/24 07:13:13;;;;;;;12.60;7.05;;;17.00;99.90;;;;;;4844651;29;20082;-74
2022/04/24 07:15:39;;;;;;;13.73;6.60;;;17.10;99.90;;;;;;4844477;29;20030;-74
2022/04/24 07:18:07;;;;;;;18.83;6.80;;;17.20;99.90;;;;;;4844301;29;20378;-75
2022/04/24 07:20:33;;;;;;;12.32;6.28;;;17.40;99.90;;;;;;4828370;29;20057;-74
2022/04/24 07:23:01;;;;;;;18.58;5.90;;;17.50;99.90;;;;;;4844501;29;20466;-74
2022/04/24 07:25:32;;;;;;;18.17;5.55;;;17.60;99.90;;;;;;4844206;29;20549;-75
2022/04/24 07:27:58;;;;;;;12.35;6.90;;;17.60;99.90;;;;;;4844617;29;20056;-74
2022/04/24 07:30:24;;;;;;;9.63;6.15;;;17.60;99.90;;;;;;4844548;29;20057;-76
2022/04/24 07:32:52;;;;;;;14.00;6.55;;;17.70;99.90;;;;;;4844080;29;20109;-74
2022/04/24 07:35:20;;;;;;;11.95;5.88;;;17.90;99.90;;;;;;4843688;29;20026;-75
2022/04/24 07:37:46;;;;;;;15.75;7.20;;;17.90;99.90;;;;;;4841358;29;20034;-76
2022/04/24 07:40:15;;;;;;;11.98;6.10;;;18.00;99.90;;;;;;4839040;29;20064;-76
2022/04/24 07:42:44;;;;;;;18.10;6.63;;;18.00;99.90;;;;;;4836462;29;20026;-74
2022/04/24 07:45:10;;;;;;;13.07;7.43;;;18.10;99.90;;;;;;4840725;29;20030;-75
2022/04/24 07:47:36;;;;;;;18.67;6.93;;;18.20;99.90;;;;;;4841592;29;20022;-76
2022/04/24 07:50:02;;;;;;;14.07;7.00;;;18.10;99.90;;;;;;4842821;29;20113;-76
2022/04/24 07:52:28;;;;;;;15.02;6.90;;;18.20;99.90;;;;;;4842831;29;20038;-73
2022/04/24 07:54:54;;;;;;;16.83;8.60;;;18.30;99.90;;;;;;4842515;29;20067;-76
2022/04/24 07:57:21;;;;;;;16.98;7.43;;;18.30;99.90;;;;;;4840904;29;20050;-75
2022/04/24 07:59:47;;;;;;;12.20;5.32;;;18.30;99.90;;;;;;4841079;29;20018;-76
2022/04/24 08:02:12;;;;;;;16.67;6.25;;;18.40;99.90;;;;;;4840964;29;20485;-74
2022/04/24 08:04:38;;;;;;;10.90;5.40;;;18.40;99.90;;;;;;4841517;29;20177;-75
2022/04/24 08:07:04;;;;;;;14.93;6.25;;;18.60;99.90;;;;;;4842204;29;20083;-74
2022/04/24 08:09:30;;;;;;;11.63;5.75;;;18.60;99.90;;;;;;4842021;29;20022;-75
2022/04/24 08:11:55;;;;;;;14.70;7.70;;;18.70;99.90;;;;;;4842695;29;20021;-75
2022/04/24 08:14:21;;;;;;;18.20;10.18;;;18.90;99.90;;;;;;4843120;29;20037;-76
2022/04/24 08:16:47;;;;;;;20.50;11.43;;;19.10;99.90;;;;;;4843050;29;20026;-75
2022/04/24 08:19:13;;;;;;;11.70;6.38;;;19.20;99.90;;;;;;4843729;29;20026;-76
2022/04/24 08:21:39;;;;;;;21.02;9.27;;;19.10;99.90;;;;;;4843025;29;20066;-75
2022/04/24 08:24:04;;;;;;;21.08;11.98;;;19.20;99.90;;;;;;4843346;29;20125;-75
2022/04/24 08:26:30;;;;;;;13.68;7.43;;;19.20;99.90;;;;;;4843155;29;20052;-77
2022/04/24 08:28:56;;;;;;;16.85;7.47;;;19.40;99.90;;;;;;4842870;29;20057;-77
2022/04/24 08:31:22;;;;;;;13.85;7.78;;;19.60;99.90;;;;;;4842891;29;20485;-79
2022/04/24 08:33:47;;;;;;;15.70;6.93;;;19.70;99.90;;;;;;4843294;29;20458;-76
2022/04/24 08:36:13;;;;;;;15.85;7.70;;;20.00;99.90;;;;;;4826104;29;20058;-77
2022/04/24 08:38:39;;;;;;;15.02;6.97;;;20.30;99.90;;;;;;4826562;29;20057;-77
2022/04/24 08:41:05;;;;;;;21.33;9.20;;;20.40;99.90;;;;;;4843221;29;20396;-77
2022/04/24 08:43:32;;;;;;;15.88;8.20;;;20.40;99.90;;;;;;4826653;29;20034;-76
2022/04/24 08:45:58;;;;;;;21.75;10.10;;;20.60;99.90;;;;;;4826391;29;20026;-77
2022/04/24 08:48:23;;;;;;;21.65;8.93;;;20.50;99.90;;;;;;4842640;29;20108;-77
2022/04/24 08:50:52;;;;;;;15.88;7.88;;;20.40;99.90;;;;;;4842668;29;20113;-76
2022/04/24 08:53:19;;;;;;;18.00;8.32;;;20.50;99.70;;;;;;4841354;29;20113;-76
2022/04/24 08:55:46;;;;;;;18.33;9.35;;;20.50;98.70;;;;;;4842761;29;20037;-76
2022/04/24 08:58:12;;;;;;;14.52;7.75;;;20.70;99.90;;;;;;4842072;29;20105;-74
2022/04/24 09:00:38;;;;;;;18.88;8.30;;;20.70;97.70;;;;;;4842221;29;20034;-78
2022/04/24 09:03:04;;;;;;;15.13;7.63;;;20.80;99.40;;;;;;4842372;29;20034;-76
2022/04/24 09:05:30;;;;;;;16.70;7.82;;;20.70;96.20;;;;;;4842681;29;20478;-77
2022/04/24 09:08:10;;;;;;;18.27;9.75;;;20.70;97.30;;;;;;4842073;29;20113;-77
2022/04/24 09:11:11;;;;;;;19.67;9.45;;;20.70;96.50;;;;;;4825742;29;20042;-77
2022/04/24 09:16:34;;;;;;;14.73;8.68;;;20.90;98.80;;;;;;4697372;30;20037;-78
2022/04/24 09:19:00;;;;;;;21.25;9.48;;;21.10;96.10;;;;;;4697924;30;20136;-77
2022/04/24 09:21:26;;;;;;;19.60;10.10;;;21.40;95.00;;;;;;4700910;30;20132;-76
2022/04/24 09:23:52;;;;;;;16.20;9.63;;;21.50;94.30;;;;;;4701311;30;20037;-76
2022/04/24 09:26:17;;;;;;;20.95;10.75;;;21.80;95.50;;;;;;4700885;30;20034;-77
2022/04/24 09:28:44;;;;;;;19.08;9.65;;;21.90;96.10;;;;;;4686652;30;20033;-78
2022/04/24 09:31:10;;;;;;;20.70;10.65;;;22.10;94.10;;;;;;4700871;30;20033;-76
2022/04/24 09:33:38;;;;;;;24.10;11.63;;;22.10;93.70;;;;;;4700885;30;20049;-77
2022/04/24 09:36:04;;;;;;;24.05;12.00;;;22.10;92.70;;;;;;4700990;30;20107;-77
2022/04/24 09:38:30;;;;;;;21.88;10.13;;;22.10;92.40;;;;;;4700715;30;20033;-76
2022/04/24 09:40:55;;;;;;;22.25;11.52;;;22.00;89.70;;;;;;4686397;30;20068;-74
2022/04/24 09:43:21;;;;;;;22.95;11.95;;;21.90;86.40;;;;;;4700906;30;20356;-75
2022/04/24 09:45:54;;;;;;;29.35;16.30;;;22.00;85.30;;;;;;4700741;30;20033;-75
2022/04/24 09:48:21;;;;;;;25.75;13.25;;;21.90;84.60;;;;;;4772366;30;20040;-75
2022/04/24 09:50:49;;;;;;;33.95;12.50;;;21.90;88.00;;;;;;4789110;30;20095;-75
2022/04/24 09:53:20;;;;;;;22.48;10.82;;;21.90;89.40;;;;;;4816434;29;20046;-76
2022/04/24 09:55:49;;;;;;;20.98;10.85;;;21.90;89.10;;;;;;4845604;29;20050;-76
2022/04/24 09:58:15;;;;;;;18.70;12.52;;;22.00;88.80;;;;;;4845442;29;20132;-74
2022/04/24 10:00:42;;;;;;;23.40;12.60;;;22.10;88.90;;;;;;4845772;29;20025;-76
2022/04/24 10:03:09;;;;;;;33.75;15.48;;;22.20;86.40;;;;;;4845744;29;20026;-76
2022/04/24 10:05:38;;;;;;;22.55;7.57;;;22.20;87.60;;;;;;4846387;29;20037;-77
2022/04/24 10:08:06;;;;;;;20.27;10.57;;;22.20;83.30;;;;;;4845879;29;20070;-77
2022/04/24 10:10:32;;;;;;;21.33;10.82;;;22.30;85.60;;;;;;4829353;29;20041;-76
2022/04/24 10:13:01;;;;;;;36.08;21.25;;;22.40;84.50;;;;;;4829402;29;20030;-76
2022/04/24 10:15:28;;;;;;;25.60;12.20;;;22.50;82.50;;;;;;4845906;29;20030;-76
2022/04/24 10:18:16;;;;;;;23.30;8.70;;;22.60;79.00;;;;;;4845750;29;20030;-75
2022/04/24 10:20:45;;;;;;;27.23;9.23;;;22.50;74.20;;;;;;4845595;29;20026;-75
2022/04/24 10:23:11;;;;;;;26.38;9.93;;;22.60;70.50;;;;;;4845656;29;20022;-76
2022/04/24 10:25:43;;;;;;;20.38;6.63;;;22.60;69.20;;;;;;4845264;29;20053;-76
2022/04/24 10:28:13;;;;;;;12.18;7.13;;;22.60;67.30;;;;;;4844454;29;20377;-76
2022/04/24 10:30:39;;;;;;;20.10;8.43;;;22.60;66.70;;;;;;4844341;29;20087;-76
2022/04/24 10:33:19;;;;;;;24.00;11.23;;;;;;;;;;4845155;29;20109;-77
2022/04/24 10:35:59;;;;;;;18.73;8.65;;;22.90;69.70;;;;;;4844983;29;20022;-77
2022/04/24 10:38:28;;;;;;;17.88;8.40;;;23.00;70.90;;;;;;4828936;29;20026;-76
2022/04/24 10:41:13;;;;;;;74.45;35.63;;;23.00;66.80;;;;;;4845323;29;20034;-76
2022/04/24 10:43:41;;;;;;;20.52;10.88;;;23.10;70.20;;;;;;4845475;29;20098;-75
2022/04/24 10:46:24;;;;;;;69.55;42.13;;;23.30;69.50;;;;;;4845280;29;20029;-76
2022/04/24 10:48:51;;;;;;;28.25;9.10;;;;;;;;;;4845445;29;20026;-78
2022/04/24 10:51:30;;;;;;;18.45;9.50;;;;;;;;;;4845167;29;20473;-75
2022/04/24 10:53:58;;;;;;;25.98;11.38;;;;;;;;;;4845348;29;20098;-77
2022/04/24 10:56:25;;;;;;;19.08;9.80;;;;;;;;;;4845085;29;20018;-76
2022/04/24 10:58:51;;;;;;;26.92;9.05;;;;;;;;;;4844635;29;20451;-75
2022/04/24 11:01:18;;;;;;;32.58;9.45;;;;;;;;;;4845119;29;20018;-76
2022/04/24 11:03:45;;;;;;;88.85;56.97;;;;;;;;;;4844606;29;20029;-76
2022/04/24 11:06:23;;;;;;;42.55;27.85;;;;;;;;;;4844661;29;20042;-75
2022/04/24 11:08:49;;;;;;;74.53;48.95;;;;;;;;;;4844918;29;20025;-77
2022/04/24 11:11:16;;;;;;;105.30;68.60;;;;;;;;;;4845139;29;20066;-76
2022/04/24 11:13:42;;;;;;;44.35;26.92;;;;;;;;;;4828310;29;20026;-76
2022/04/24 11:16:08;;;;;;;54.70;36.38;;;;;;;;;;4844410;29;20032;-77
2022/04/24 11:18:36;;;;;;;88.03;51.88;;;;;;;;;;4828330;29;20022;-78
2022/04/24 11:21:06;;;;;;;80.80;47.42;;;;;;;;;;4844393;29;20438;-77
2022/04/24 11:23:33;;;;;;;40.42;20.48;;;;;;;;;;4844788;29;20402;-76
2022/04/24 11:26:02;;;;;;;30.48;15.00;;;;;;;;;;4844590;29;20029;-77
2022/04/24 11:28:49;;;;;;;32.55;12.75;;;;;;;;;;4844461;29;20484;-77
2022/04/24 11:31:19;;;;;;;23.27;10.82;;;;;;;;;;4844727;29;20030;-77
2022/04/24 11:33:56;;;;;;;22.73;10.13;;;;;;;;;;4844603;29;20022;-75
2022/04/24 11:36:23;;;;;;;23.88;9.32;;;;;;;;;;4844737;29;20030;-75
2022/04/24 11:38:50;;;;;;;25.33;9.55;;;;;;;;;;4844301;29;20037;-76
2022/04/24 11:41:16;;;;;;;16.92;6.45;;;;;;;;;;4844363;29;20476;-77
2022/04/24 11:43:43;;;;;;;23.65;11.35;;;;;;;;;;4843088;29;20377;-75
2022/04/24 11:51:38;;;;;;;17.90;8.10;;;;;;;;;;4843763;29;20532;-79
2022/04/24 11:54:04;;;;;;;21.95;7.57;;;;;;;;;;4844061;29;20034;-77
2022/04/24 11:56:32;;;;;;;12.10;5.25;;;;;;;;;;4844166;29;20074;-76
2022/04/24 11:59:14;;;;;;;13.00;4.88;;;;;;;;;;4844105;29;20084;-76
2022/04/24 12:01:40;;;;;;;15.48;5.78;;;;;;;;;;4827543;29;20058;-77
2022/04/24 12:04:06;;;;;;;14.48;5.82;;;;;;;;;;4843689;29;20406;-77
2022/04/24 12:06:33;;;;;;;16.92;5.70;;;;;;;;;;4827570;29;20171;-76
2022/04/24 12:09:06;;;;;;;10.38;5.53;;;;;;;;;;4843568;29;20034;-77
2022/04/24 12:11:32;;;;;;;19.00;4.85;;;;;;;;;;4843885;29;20125;-77
2022/04/24 12:14:08;;;;;;;8.13;3.80;;;;;;;;;;4843668;29;20026;-78
2022/04/24 12:16:35;;;;;;;11.68;3.90;;;;;;;;;;4843890;29;20022;-76
2022/04/24 12:19:01;;;;;;;9.55;4.38;;;;;;;;;;4843536;29;20026;-77
2022/04/24 12:21:28;;;;;;;8.95;3.63;;;;;;;;;;4843730;29;20034;-76
2022/04/24 12:23:55;;;;;;;7.00;3.60;;;;;;;;;;4843390;29;20465;-79
2022/04/24 12:26:22;;;;;;;13.38;3.60;;;;;;;;;;4827182;29;20030;-78
2022/04/24 12:28:49;;;;;;;14.43;4.35;;;;;;;;;;4843346;29;20423;-77
2022/04/24 12:31:25;;;;;;;12.68;4.28;;;;;;;;;;4827121;29;20030;-77
2022/04/24 12:33:58;;;;;;;16.58;6.93;;;;;;;;;;4843587;29;20054;-79
2022/04/24 12:36:24;;;;;;;12.77;4.50;;;;;;;;;;4843433;29;20029;-78
2022/04/24 12:38:58;;;;;;;13.75;4.13;;;;;;;;;;4843490;29;20026;-75
2022/04/24 12:41:25;;;;;;;11.60;4.47;;;;;;;;;;4826895;29;20343;-77
2022/04/24 12:43:51;;;;;;;12.02;4.93;;;;;;;;;;4827003;29;20026;-79
2022/04/24 12:46:18;;;;;;;10.20;5.05;;;;;;;;;;4843336;29;20022;-77
2022/04/24 12:48:48;;;;;;;8.98;4.00;;;;;;;;;;4826819;29;20023;-77
2022/04/24 12:51:14;;;;;;;10.90;4.38;;;;;;;;;;4842860;29;20342;-77
2022/04/24 12:53:41;;;;;;;12.80;5.80;;;;;;;;;;4843280;29;20509;-77